KNRS

Imperial Beach Nolf (Ream Field) Airport

Imperial Beach, California, USA
METAR KNRS 230910Z AUTO 17004KT 6SM BR BKN014 OVC019 13/12 A2990 RMK AO2 T01330122
Observed Flight Rules
Oct-23 @ 09:10 UTC (30 minutes ago) Marginal Visual Flight Rules
Wind Visibility Clouds Conditions
170° at 4 knots 6 miles
  • Broken at 1,400' AGL
  • Overcast at 1,900' AGL
  • Mist
Temperatures Readings
Current 13°C / 55°F
Dewpoint 12°C / 54°F
Humidity 94%
Altimeter 29.9" Hg
Pressure 1013 hPa
Elevation 7
METAR KNRS 230910Z AUTO 17004KT 6SM BR BKN014 OVC019 13/12 A2990 RMK AO2 T01330122
Observed Flight Rules
Oct-23 @ 09:10 UTC
(30 minutes ago)
MVFR
Wind Visibility
170° at 4 knots 6 miles
Clouds
  • Broken at 1,400' AGL
  • Overcast at 1,900' AGL
Conditions
  • Mist
Temperature Dewpoint
13°C / 55°F 12°C / 54°F
Humidity Altimeter Pressure
94% 29.9" Hg 1013 hPa